Graham, Alabama
Current Conditions -  °F | °C
As of 6:53 AM on Friday 28 Nov 2014 (Local Time) from KANB Reporting Station
Clear Clear  
Wind Chill: 23°   Ceiling: Unl
Heat Index: 28°   Visibility: 10mi
Dew Point: 23°   Wind: 5mph
Humidity: 81%   Direction: 240°WSW
Pressure: 30.44"   Gusts: NA
Location:  33.46°N, 85.32°W
Report Text: KANB 281253Z AUTO 24004KT 10SM CLR M02/M05 A3044 RMK AO2 SLP321 T10221050
Loading
Personal Weather Stations






























Interactive Weather Map New forecast layout! Learn more

10-Day Weather Forecast

Advertisements
Track Severe Weather on mobile